NORTHERN NASSAU  -  Areal Flood Advisory Areal Flood Advisory     Flash Flood Watch Flash Flood Watch     Rip Current Statement Rip Current Statement        NORTHERN QUEENS  -  Areal Flood Advisory Areal Flood Advisory     Flash Flood Watch Flash Flood Watch     Rip Current Statement Rip Current Statement        SOUTHERN NASSAU  -  Areal Flood Advisory Areal Flood Advisory     Flash Flood Watch Flash Flood Watch     Rip Current Statement Rip Current Statement        SOUTHERN QUEENS  -  Areal Flood Advisory Areal Flood Advisory     Flash Flood Watch Flash Flood Watch     Rip Current Statement Rip Current Statement        NORTHEAST SUFFOLK  -  Rip Current Statement Rip Current Statement        NORTHWEST SUFFOLK  -  Rip Current Statement Rip Current Statement        SOUTHEAST SUFFOLK  -  Rip Current Statement Rip Current Statement        SOUTHWEST SUFFOLK  -  Rip Current Statement Rip Current Statement      

Active alerts

Northern Queens
  Details for Northern Queens Areal Flood Advisory  +2 additional alerts
Southern Queens
  Details for Southern Queens Areal Flood Advisory  +2 additional alerts
Northern Nassau
  Details for Northern Nassau Areal Flood Advisory  +2 additional alerts
Southern Nassau
  Details for Southern Nassau Areal Flood Advisory  +2 additional alerts
Northwest Suffolk
  Details for Northwest Suffolk Rip Current Statement
Southwest Suffolk
  Details for Southwest Suffolk Rip Current Statement
Northeast Suffolk
  Details for Northeast Suffolk Rip Current Statement
Southeast Suffolk
  Details for Southeast Suffolk Rip Current Statement


WXM80 ListenWXM80 Stop

You find our weather info also at:

UK Metoffice

WeatherCloud

Weather Underground

Northeastern Weather Network

AWEKAS

Citizen Weather Observer Program (CWOP)

HAMweather, WeatherForYou, PWS Weather


Weather Underground History page Text

Daily Summary for September 2, 2017 Units:  English    Metric   Both
« Previous Day
Next Day »
Daily Weekly Monthly Yearly Custom
  High: Low: Average:
Temperature: 69.4 °F 57.6 °F 62.1 °F
Dew Point: 56.7 °F 45.8 °F 51.8 °F
Humidity: 93 % 53 % 70 %
Wind Speed: 7.7 mph 0.0 mph 1.6 mph
Wind Gust: 13.0 mph - -
Wind:- - East
Pressure: 30.21 in 30.08 in -
Precipitation: 0.20 in    
Historical Graphs
 
 
Tabular Data for September 2, 2017
Time Temperature Dew Point Pressure Wind Wind Speed Wind Gust Humidity Rainfall Rate (Hourly)
00:02 62.7 °F 45.8 °F 30.14 in NE 4.3 mph 7.0 mph 54 % 0.00 in
00:07 62.6 °F 46.2 °F 30.14 in NE 6.3 mph 9.0 mph 55 % 0.00 in
00:12 62.5 °F 46.1 °F 30.14 in NNE 3.5 mph 6.9 mph 55 % 0.00 in
00:17 62.3 °F 46.4 °F 30.15 in NNE 6.1 mph 11.5 mph 56 % 0.00 in
00:22 62.1 °F 46.2 °F 30.14 in NNE 3.3 mph 8.1 mph 56 % 0.00 in
00:27 62.0 °F 47.0 °F 30.14 in NNE 3.5 mph 5.0 mph 58 % 0.00 in
00:32 61.8 °F 46.9 °F 30.15 in North 4.4 mph 9.2 mph 58 % 0.00 in
00:37 61.6 °F 46.7 °F 30.14 in NNE 5.8 mph 11.5 mph 58 % 0.00 in
00:42 61.4 °F 46.5 °F 30.14 in NNE 4.4 mph 9.2 mph 58 % 0.00 in
00:47 61.3 °F 46.4 °F 30.14 in North 5.4 mph 10.4 mph 58 % 0.00 in
00:52 61.2 °F 46.8 °F 30.15 in NE 5.1 mph 8.1 mph 59 % 0.00 in
00:58 61.1 °F 47.1 °F 30.15 in North 7.7 mph 11.5 mph 60 % 0.00 in
01:03 61.0 °F 47.0 °F 30.15 in NNE 3.8 mph 8.1 mph 60 % 0.00 in
01:08 60.9 °F 47.8 °F 30.15 in NE 3.2 mph 4.6 mph 62 % 0.00 in
01:13 60.8 °F 47.7 °F 30.15 in NNE 3.5 mph 9.2 mph 62 % 0.00 in
01:18 60.7 °F 47.6 °F 30.14 in NNE 5.3 mph 10.4 mph 62 % 0.00 in
01:23 60.5 °F 47.4 °F 30.15 in NNE 5.5 mph 11.5 mph 62 % 0.00 in
01:28 60.4 °F 47.3 °F 30.15 in North 6.3 mph 11.5 mph 62 % 0.00 in
01:33 60.3 °F 47.6 °F 30.15 in NNE 3.6 mph 11.5 mph 63 % 0.00 in
01:38 60.2 °F 48.0 °F 30.15 in NE 7.0 mph 11.5 mph 64 % 0.00 in
01:43 60.1 °F 47.9 °F 30.15 in North 6.3 mph 13.0 mph 64 % 0.00 in
01:48 60.1 °F 47.9 °F 30.15 in North 3.0 mph 8.1 mph 64 % 0.00 in
01:53 60.0 °F 47.8 °F 30.15 in North 3.4 mph 9.2 mph 64 % 0.00 in
01:58 59.9 °F 47.7 °F 30.15 in NNE 3.5 mph 5.8 mph 64 % 0.00 in
02:03 59.8 °F 47.6 °F 30.15 in North 3.4 mph 9.0 mph 64 % 0.00 in
02:08 59.6 °F 47.4 °F 30.14 in NE 4.1 mph 8.0 mph 64 % 0.00 in
02:13 59.6 °F 47.8 °F 30.14 in NNW 4.8 mph 8.1 mph 65 % 0.00 in
02:18 59.5 °F 47.7 °F 30.15 in North 6.6 mph 10.0 mph 65 % 0.00 in
02:23 59.4 °F 47.6 °F 30.15 in North 5.6 mph 10.4 mph 65 % 0.00 in
02:28 59.4 °F 48.0 °F 30.14 in NNE 3.4 mph 9.0 mph 66 % 0.00 in
02:33 59.3 °F 47.9 °F 30.14 in North 5.8 mph 8.1 mph 66 % 0.00 in
02:38 59.3 °F 47.9 °F 30.14 in NNE 7.2 mph 12.7 mph 66 % 0.00 in
02:43 59.2 °F 48.2 °F 30.14 in North 4.9 mph 7.0 mph 67 % 0.00 in
02:48 59.2 °F 48.2 °F 30.14 in NNE 6.9 mph 11.5 mph 67 % 0.00 in
02:53 59.1 °F 48.1 °F 30.15 in North 7.1 mph 9.2 mph 67 % 0.00 in
02:58 59.1 °F 48.5 °F 30.15 in NNE 6.0 mph 8.1 mph 68 % 0.00 in
03:03 59.0 °F 48.1 °F 30.15 in NNE 4.0 mph 8.0 mph 67 % 0.00 in
03:08 59.0 °F 48.4 °F 30.15 in North 5.8 mph 8.1 mph 68 % 0.00 in
03:14 59.0 °F 48.8 °F 30.15 in NNE 4.2 mph 9.2 mph 69 % 0.00 in
03:19 58.9 °F 49.1 °F 30.15 in NNE 4.1 mph 8.1 mph 70 % 0.00 in
03:24 58.9 °F 49.5 °F 30.14 in NNE 1.4 mph 3.5 mph 71 % 0.00 in
03:29 58.9 °F 49.5 °F 30.14 in NNE 3.2 mph 5.8 mph 71 % 0.00 in
03:34 58.8 °F 49.0 °F 30.14 in North 1.7 mph 4.6 mph 70 % 0.00 in
03:39 58.7 °F 48.2 °F 30.14 in NNE 2.9 mph 7.0 mph 68 % 0.00 in
03:44 58.6 °F 47.7 °F 30.14 in NNE 4.9 mph 10.0 mph 67 % 0.00 in
03:49 58.6 °F 48.1 °F 30.14 in East 4.8 mph 9.2 mph 68 % 0.00 in
03:54 58.6 °F 48.1 °F 30.14 in NNE 4.8 mph 8.1 mph 68 % 0.00 in
03:59 58.6 °F 48.5 °F 30.14 in NE 5.2 mph 6.9 mph 69 % 0.00 in
04:04 58.6 °F 48.5 °F 30.14 in NE 6.0 mph 9.2 mph 69 % 0.00 in
04:09 58.6 °F 48.5 °F 30.14 in North 7.0 mph 12.7 mph 69 % 0.00 in
04:14 58.6 °F 48.5 °F 30.14 in ENE 2.2 mph 6.9 mph 69 % 0.00 in
04:19 58.6 °F 48.8 °F 30.14 in ENE 4.9 mph 11.5 mph 70 % 0.00 in
04:24 58.5 °F 49.5 °F 30.14 in NNW 3.8 mph 9.2 mph 72 % 0.00 in
04:29 58.4 °F 49.8 °F 30.14 in NNE 2.7 mph 9.2 mph 73 % 0.00 in
04:35 58.2 °F 49.6 °F 30.14 in NNE 4.1 mph 9.2 mph 73 % 0.00 in
04:40 58.1 °F 49.5 °F 30.15 in ENE 3.5 mph 7.0 mph 73 % 0.00 in
04:45 57.9 °F 49.3 °F 30.15 in NNE 3.3 mph 6.9 mph 73 % 0.00 in
04:50 57.8 °F 48.8 °F 30.15 in ENE 2.5 mph 4.6 mph 72 % 0.00 in
04:55 57.7 °F 48.7 °F 30.15 in NNE 4.2 mph 11.5 mph 72 % 0.00 in
05:00 57.7 °F 48.7 °F 30.16 in NE 2.1 mph 5.8 mph 72 % 0.00 in
05:05 57.7 °F 48.7 °F 30.16 in NE 2.4 mph 6.9 mph 72 % 0.00 in
05:10 57.7 °F 48.7 °F 30.16 in NNE 0.9 mph 3.5 mph 72 % 0.00 in
05:15 57.7 °F 48.7 °F 30.16 in NE 3.3 mph 8.1 mph 72 % 0.00 in
05:20 57.6 °F 48.6 °F 30.16 in NE 2.1 mph 5.0 mph 72 % 0.00 in
05:25 57.6 °F 48.6 °F 30.16 in ENE 3.0 mph 8.1 mph 72 % 0.00 in
05:30 57.6 °F 49.0 °F 30.16 in ENE 0.8 mph 3.5 mph 73 % 0.00 in
05:35 57.6 °F 49.0 °F 30.16 in NE 1.6 mph 3.0 mph 73 % 0.00 in
05:40 57.7 °F 49.1 °F 30.16 in ENE 1.8 mph 3.5 mph 73 % 0.00 in
05:42 57.7 °F 49.1 °F 30.16 in ENE 0.3 mph 2.3 mph 73 % 0.00 in
05:47 57.7 °F 49.1 °F 30.15 in ENE 3.3 mph 9.2 mph 73 % 0.00 in
05:52 57.8 °F 49.6 °F 30.15 in NE 4.0 mph 4.0 mph 74 % 0.00 in
05:57 57.8 °F 49.6 °F 30.16 in NE 3.2 mph 5.0 mph 74 % 0.00 in
06:02 58.0 °F 49.8 °F 30.15 in NE 3.6 mph 10.4 mph 74 % 0.00 in
06:07 58.1 °F 50.2 °F 30.15 in ENE 3.7 mph 4.0 mph 75 % 0.00 in
06:12 58.1 °F 50.2 °F 30.15 in ENE 4.3 mph 8.1 mph 75 % 0.00 in
06:17 58.3 °F 50.4 °F 30.15 in ENE 3.3 mph 9.2 mph 75 % 0.00 in
06:22 58.3 °F 50.4 °F 30.16 in NE 3.4 mph 9.2 mph 75 % 0.00 in
06:28 58.3 °F 50.4 °F 30.16 in NE 3.7 mph 10.4 mph 75 % 0.00 in
06:33 58.4 °F 50.5 °F 30.17 in ENE 2.3 mph 3.5 mph 75 % 0.00 in
06:38 58.4 °F 50.5 °F 30.16 in ENE 3.1 mph 4.6 mph 75 % 0.00 in
06:43 58.4 °F 50.5 °F 30.17 in ENE 2.6 mph 4.6 mph 75 % 0.00 in
06:48 58.4 °F 50.5 °F 30.17 in East 4.4 mph 8.1 mph 75 % 0.00 in
06:53 58.4 °F 50.9 °F 30.17 in NE 2.8 mph 8.1 mph 76 % 0.00 in
06:58 58.5 °F 50.6 °F 30.18 in NE 2.3 mph 4.6 mph 75 % 0.00 in
07:03 58.6 °F 50.7 °F 30.18 in ENE 2.3 mph 4.6 mph 75 % 0.00 in
07:08 58.6 °F 50.7 °F 30.18 in ENE 2.2 mph 6.9 mph 75 % 0.00 in
07:13 58.7 °F 51.2 °F 30.18 in ENE 2.0 mph 4.6 mph 76 % 0.00 in
07:18 58.8 °F 51.2 °F 30.18 in NE 1.1 mph 3.5 mph 76 % 0.00 in
07:23 58.8 °F 51.2 °F 30.18 in ENE 0.4 mph 2.3 mph 76 % 0.00 in
07:28 59.0 °F 51.1 °F 30.18 in ENE 2.6 mph 3.5 mph 75 % 0.00 in
07:33 59.1 °F 51.2 °F 30.18 in ENE 1.3 mph 3.0 mph 75 % 0.00 in
07:38 59.3 °F 51.0 °F 30.18 in ENE 2.1 mph 4.6 mph 74 % 0.00 in
07:43 59.5 °F 51.6 °F 30.18 in ENE 1.8 mph 3.5 mph 75 % 0.00 in
07:48 59.6 °F 51.7 °F 30.18 in ENE 2.2 mph 7.0 mph 75 % 0.00 in
07:53 59.6 °F 52.0 °F 30.18 in ENE 3.8 mph 7.0 mph 76 % 0.00 in
07:58 59.7 °F 52.1 °F 30.19 in ENE 0.6 mph 3.0 mph 76 % 0.00 in
08:03 59.9 °F 52.0 °F 30.19 in ENE 3.0 mph 8.1 mph 75 % 0.00 in
08:08 60.1 °F 52.1 °F 30.20 in NE 2.5 mph 3.5 mph 75 % 0.00 in
08:13 60.3 °F 52.3 °F 30.20 in ENE 1.3 mph 9.2 mph 75 % 0.00 in
08:19 60.4 °F 52.4 °F 30.20 in ENE 1.7 mph 3.5 mph 75 % 0.00 in
08:24 60.6 °F 52.6 °F 30.20 in ENE 3.0 mph 3.5 mph 75 % 0.00 in
08:29 60.7 °F 52.4 °F 30.21 in ENE 1.4 mph 3.5 mph 74 % 0.00 in
08:34 60.9 °F 52.9 °F 30.20 in ENE 3.0 mph 5.0 mph 75 % 0.00 in
08:35 60.9 °F 52.6 °F 30.20 in ENE 4.0 mph 8.1 mph 74 % 0.00 in
08:40 61.1 °F 52.7 °F 30.20 in NE 3.8 mph 8.0 mph 74 % 0.00 in
08:45 61.3 °F 52.9 °F 30.19 in NE 2.2 mph 9.2 mph 74 % 0.00 in
08:50 61.4 °F 53.0 °F 30.19 in NE 3.5 mph 6.9 mph 74 % 0.00 in
08:55 61.5 °F 53.1 °F 30.19 in ENE 1.7 mph 4.6 mph 74 % 0.00 in
09:00 61.6 °F 52.9 °F 30.19 in ENE 3.3 mph 6.9 mph 73 % 0.00 in
09:05 61.7 °F 53.0 °F 30.19 in ENE 3.6 mph 8.1 mph 73 % 0.00 in
09:10 61.7 °F 52.6 °F 30.19 in ENE 1.4 mph 8.1 mph 72 % 0.00 in
09:15 61.9 °F 52.8 °F 30.20 in NE 1.5 mph 5.8 mph 72 % 0.00 in
09:21 62.0 °F 52.5 °F 30.20 in NE 1.0 mph 6.0 mph 71 % 0.00 in
09:26 62.2 °F 52.7 °F 30.21 in ENE 1.0 mph 6.0 mph 71 % 0.00 in
09:31 62.3 °F 52.4 °F 30.21 in Calm   3.0 mph 70 % 0.00 in
09:36 62.5 °F 52.6 °F 30.20 in NE 1.0 mph 4.0 mph 70 % 0.00 in
09:41 62.7 °F 52.8 °F 30.20 in ENE 2.0 mph 4.0 mph 70 % 0.00 in
09:42 62.7 °F 52.8 °F 30.20 in ENE 0.7 mph 3.5 mph 70 % 0.00 in
09:47 62.9 °F 53.0 °F 30.21 in NE 0.5 mph 2.3 mph 70 % 0.00 in
09:52 63.1 °F 53.2 °F 30.21 in NE 1.3 mph 3.5 mph 70 % 0.00 in
09:57 63.3 °F 52.6 °F 30.21 in NE 1.3 mph 3.5 mph 68 % 0.00 in
10:02 63.5 °F 53.1 °F 30.20 in ENE 0.3 mph 2.3 mph 69 % 0.00 in
10:07 63.6 °F 52.4 °F 30.20 in ENE 0.2 mph 2.3 mph 67 % 0.00 in
10:12 63.7 °F 52.1 °F 30.21 in ENE 2.5 mph 5.0 mph 66 % 0.00 in
10:17 63.9 °F 52.3 °F 30.21 in Calm   1.2 mph 66 % 0.00 in
10:22 64.0 °F 52.4 °F 30.21 in ENE 0.1 mph 1.2 mph 66 % 0.00 in
10:27 64.1 °F 52.1 °F 30.21 in Calm   1.2 mph 65 % 0.00 in
10:32 64.3 °F 52.3 °F 30.21 in ENE 0.2 mph 1.2 mph 65 % 0.00 in
10:37 64.5 °F 52.5 °F 30.21 in ENE 0.1 mph 1.2 mph 65 % 0.00 in
10:42 64.6 °F 51.7 °F 30.21 in ENE 0.2 mph 1.2 mph 63 % 0.00 in
10:47 64.8 °F 52.8 °F 30.21 in Calm     65 % 0.00 in
10:52 64.9 °F 51.6 °F 30.21 in NE 0.6 mph 3.5 mph 62 % 0.00 in
10:57 65.1 °F 51.8 °F 30.20 in NE 0.2 mph 2.3 mph 62 % 0.00 in
11:02 65.2 °F 52.3 °F 30.20 in NE 0.4 mph 1.2 mph 63 % 0.00 in
11:07 65.3 °F 51.9 °F 30.21 in SE 0.6 mph 3.5 mph 62 % 0.00 in
11:12 65.4 °F 51.6 °F 30.20 in Calm     61 % 0.00 in
11:17 65.5 °F 52.6 °F 30.20 in SE 0.6 mph 3.5 mph 63 % 0.00 in
11:22 65.6 °F 52.2 °F 30.20 in SE 0.1 mph 2.3 mph 62 % 0.00 in
11:27 65.7 °F 51.4 °F 30.20 in Calm   1.2 mph 60 % 0.00 in
11:32 65.7 °F 51.9 °F 30.20 in SE 0.1 mph 1.2 mph 61 % 0.00 in
11:37 65.8 °F 51.5 °F 30.20 in SE 0.3 mph 1.2 mph 60 % 0.00 in
11:42 65.9 °F 51.2 °F 30.20 in Calm     59 % 0.00 in
11:47 66.0 °F 51.7 °F 30.19 in Calm     60 % 0.00 in
11:52 66.0 °F 51.3 °F 30.20 in Calm   1.2 mph 59 % 0.00 in
11:57 66.1 °F 51.8 °F 30.19 in Calm   1.2 mph 60 % 0.00 in
12:02 66.3 °F 52.0 °F 30.19 in Calm     60 % 0.00 in
12:07 66.5 °F 51.3 °F 30.19 in East 0.1 mph 2.0 mph 58 % 0.00 in
12:12 66.7 °F 51.0 °F 30.19 in Calm   1.0 mph 57 % 0.00 in
12:17 67.0 °F 52.2 °F 30.19 in Calm     59 % 0.00 in
12:22 67.0 °F 50.3 °F 30.19 in East 0.1 mph 1.2 mph 55 % 0.00 in
12:27 67.1 °F 52.3 °F 30.19 in East 0.2 mph   59 % 0.00 in
12:32 67.5 °F 52.7 °F 30.19 in Calm   1.2 mph 59 % 0.00 in
12:37 68.2 °F 52.4 °F 30.18 in ESE 0.1 mph 1.2 mph 57 % 0.00 in
12:42 68.9 °F 53.0 °F 30.18 in NNE 0.7 mph 2.3 mph 57 % 0.00 in
12:48 69.2 °F 52.3 °F 30.18 in NE 3.5 mph 4.6 mph 55 % 0.00 in
12:53 69.3 °F 52.4 °F 30.18 in ESE 0.9 mph 2.3 mph 55 % 0.00 in
12:58 69.4 °F 52.0 °F 30.18 in Calm   1.2 mph 54 % 0.00 in
13:03 69.4 °F 51.5 °F 30.18 in NE 0.8 mph 2.3 mph 53 % 0.00 in
13:08 69.0 °F 51.2 °F 30.17 in NE 2.4 mph 4.0 mph 53 % 0.00 in
13:13 68.5 °F 51.7 °F 30.18 in NE 0.6 mph 3.5 mph 55 % 0.00 in
13:18 68.3 °F 52.0 °F 30.17 in Calm   1.2 mph 56 % 0.00 in
13:23 68.2 °F 51.9 °F 30.17 in Calm     56 % 0.00 in
13:28 68.0 °F 51.7 °F 30.17 in NE 0.4 mph 1.2 mph 56 % 0.00 in
13:33 67.7 °F 52.4 °F 30.17 in Calm   1.2 mph 58 % 0.00 in
13:38 67.6 °F 52.8 °F 30.17 in Calm   1.0 mph 59 % 0.00 in
13:43 67.7 °F 52.9 °F 30.17 in NE 0.1 mph 1.2 mph 59 % 0.00 in
13:48 67.7 °F 51.4 °F 30.17 in ENE 0.4 mph 1.2 mph 56 % 0.00 in
13:53 67.7 °F 50.9 °F 30.17 in ENE 0.5 mph 2.3 mph 55 % 0.00 in
13:58 67.7 °F 51.4 °F 30.17 in Calm   1.2 mph 56 % 0.00 in
14:03 67.7 °F 50.9 °F 30.17 in ENE 0.1 mph 1.0 mph 55 % 0.00 in
14:08 67.7 °F 51.4 °F 30.16 in Calm     56 % 0.00 in
14:13 67.7 °F 51.9 °F 30.17 in ESE 0.9 mph 2.0 mph 57 % 0.00 in
14:18 67.6 °F 50.9 °F 30.17 in SE 0.8 mph 3.5 mph 55 % 0.00 in
14:23 67.6 °F 52.8 °F 30.17 in Calm   1.0 mph 59 % 0.00 in
14:28 67.6 °F 52.8 °F 30.16 in SE 0.1 mph 1.2 mph 59 % 0.00 in
14:33 67.5 °F 51.2 °F 30.16 in SE 1.9 mph 2.3 mph 56 % 0.00 in
14:38 67.4 °F 52.6 °F 30.16 in SSE 0.1 mph 5.8 mph 59 % 0.00 in
14:43 67.4 °F 52.6 °F 30.16 in Calm     59 % 0.00 in
14:48 67.4 °F 52.1 °F 30.16 in Calm   1.2 mph 58 % 0.00 in
14:53 67.4 °F 52.6 °F 30.16 in Calm     59 % 0.00 in
14:58 67.3 °F 52.9 °F 30.16 in Calm   2.3 mph 60 % 0.00 in
15:03 67.3 °F 51.5 °F 30.15 in SE 0.2 mph 3.5 mph 57 % 0.00 in
15:09 67.2 °F 52.8 °F 30.16 in SE 0.7 mph 1.2 mph 60 % 0.00 in
15:14 67.1 °F 52.7 °F 30.15 in Calm   1.2 mph 60 % 0.00 in
15:19 67.0 °F 52.7 °F 30.15 in SE 0.4 mph 3.5 mph 60 % 0.00 in
15:24 66.8 °F 52.0 °F 30.15 in Calm     59 % 0.00 in
15:29 66.7 °F 51.0 °F 30.14 in SE 0.4 mph 1.2 mph 57 % 0.00 in
15:34 66.7 °F 50.5 °F 30.14 in Calm   1.2 mph 56 % 0.00 in
15:39 66.5 °F 51.3 °F 30.14 in Calm     58 % 0.00 in
15:44 66.4 °F 50.2 °F 30.14 in Calm     56 % 0.00 in
15:49 66.4 °F 51.6 °F 30.14 in Calm     59 % 0.00 in
15:54 66.4 °F 51.6 °F 30.14 in Calm     59 % 0.00 in
15:59 66.4 °F 52.1 °F 30.13 in Calm     60 % 0.00 in
16:04 66.4 °F 50.7 °F 30.13 in Calm     57 % 0.00 in
16:09 66.3 °F 51.5 °F 30.13 in Calm     59 % 0.00 in
16:14 66.4 °F 53.0 °F 30.13 in Calm     62 % 0.00 in
16:19 66.4 °F 52.1 °F 30.13 in Calm   1.2 mph 60 % 0.00 in
16:24 66.3 °F 52.0 °F 30.13 in Calm   1.2 mph 60 % 0.00 in
16:29 66.3 °F 51.1 °F 30.13 in Calm     58 % 0.00 in
16:34 66.2 °F 51.9 °F 30.13 in Calm   1.0 mph 60 % 0.00 in
16:39 66.2 °F 52.3 °F 30.13 in Calm     61 % 0.00 in
16:44 66.1 °F 51.8 °F 30.13 in Calm     60 % 0.00 in
16:49 66.1 °F 52.3 °F 30.13 in Calm   1.2 mph 61 % 0.00 in
16:54 65.9 °F 52.1 °F 30.13 in Calm     61 % 0.00 in
17:00 65.9 °F 52.5 °F 30.13 in Calm     62 % 0.00 in
17:05 65.8 °F 52.9 °F 30.13 in Calm     63 % 0.00 in
17:10 65.7 °F 52.3 °F 30.13 in SW 1.0 mph 2.3 mph 62 % 0.00 in
17:15 65.6 °F 52.2 °F 30.13 in SW 0.6 mph 3.0 mph 62 % 0.00 in
17:20 65.5 °F 52.1 °F 30.13 in SW 0.1 mph 1.2 mph 62 % 0.00 in
17:25 65.4 °F 52.0 °F 30.13 in Calm   1.2 mph 62 % 0.00 in
17:30 65.2 °F 52.3 °F 30.13 in SW 0.3 mph 3.5 mph 63 % 0.00 in
17:35 64.9 °F 52.8 °F 30.13 in Calm     65 % 0.00 in
17:40 64.7 °F 53.5 °F 30.13 in Calm     67 % 0.00 in
17:45 64.5 °F 53.3 °F 30.13 in Calm     67 % 0.00 in
17:50 64.3 °F 53.1 °F 30.12 in Calm     67 % 0.00 in
17:55 64.1 °F 53.3 °F 30.12 in Calm     68 % 0.00 in
18:00 64.0 °F 53.2 °F 30.12 in Calm     68 % 0.00 in
18:05 63.9 °F 53.5 °F 30.12 in Calm   1.2 mph 69 % 0.00 in
18:10 63.8 °F 53.4 °F 30.12 in Calm     69 % 0.00 in
18:15 63.6 °F 53.2 °F 30.11 in Calm     69 % 0.00 in
18:20 63.4 °F 53.4 °F 30.11 in Calm     70 % 0.00 in
18:25 63.3 °F 53.7 °F 30.11 in Calm   1.0 mph 71 % 0.00 in
18:30 63.2 °F 53.6 °F 30.11 in SW 0.9 mph 2.3 mph 71 % 0.00 in
18:35 63.1 °F 53.5 °F 30.11 in Calm     71 % 0.00 in
18:40 63.0 °F 53.4 °F 30.11 in SW 0.1 mph 1.2 mph 71 % 0.00 in
18:45 62.9 °F 53.7 °F 30.11 in SW 0.7 mph 3.5 mph 72 % 0.00 in
18:50 62.8 °F 53.3 °F 30.12 in Calm     71 % 0.00 in
18:55 62.8 °F 53.3 °F 30.12 in SW 0.5 mph 2.3 mph 71 % 0.00 in
19:01 62.7 °F 53.2 °F 30.12 in Calm   2.3 mph 71 % 0.00 in
19:06 62.6 °F 53.4 °F 30.12 in Calm   4.0 mph 72 % 0.00 in
19:11 62.5 °F 53.3 °F 30.12 in Calm   1.0 mph 72 % 0.00 in
19:16 62.5 °F 53.3 °F 30.11 in Calm     72 % 0.00 in
19:21 62.4 °F 53.3 °F 30.11 in SSW 0.1 mph 1.2 mph 72 % 0.00 in
19:26 62.3 °F 53.2 °F 30.11 in SSW 0.1 mph 1.0 mph 72 % 0.00 in
19:31 62.3 °F 53.2 °F 30.11 in SSW 1.0 mph 3.0 mph 72 % 0.00 in
19:36 62.3 °F 53.2 °F 30.12 in Calm   3.0 mph 72 % 0.00 in
19:41 62.3 °F 53.1 °F 30.12 in Calm   2.0 mph 72 % 0.00 in
19:46 62.2 °F 53.4 °F 30.12 in Calm   3.5 mph 73 % 0.00 in
19:51 62.2 °F 53.4 °F 30.13 in Calm   2.0 mph 73 % 0.00 in
19:56 62.2 °F 53.8 °F 30.12 in Calm   2.0 mph 74 % 0.00 in
20:01 62.1 °F 54.1 °F 30.13 in SE 0.3 mph 1.2 mph 75 % 0.00 in
20:06 62.0 °F 54.3 °F 30.12 in Calm   2.3 mph 76 % 0.00 in
20:11 61.9 °F 54.2 °F 30.13 in SE 1.4 mph 3.5 mph 76 % 0.00 in
20:16 61.8 °F 54.5 °F 30.13 in Calm   1.2 mph 77 % 0.00 in
20:21 61.7 °F 54.4 °F 30.12 in SE 1.1 mph 3.5 mph 77 % 0.00 in
20:26 61.6 °F 54.7 °F 30.12 in Calm   3.5 mph 78 % 0.00 in
20:31 61.4 °F 54.5 °F 30.12 in SE 0.7 mph 2.3 mph 78 % 0.00 in
20:36 61.3 °F 54.7 °F 30.12 in SE 0.4 mph 1.2 mph 79 % 0.00 in
20:41 61.2 °F 55.0 °F 30.12 in SE 0.9 mph 3.5 mph 80 % 0.00 in
20:46 61.0 °F 55.1 °F 30.12 in ESE 0.8 mph 2.3 mph 81 % 0.00 in
20:51 60.7 °F 55.2 °F 30.12 in SE 1.0 mph 2.3 mph 82 % 0.01 in
20:56 60.5 °F 55.6 °F 30.12 in SE 0.4 mph 1.2 mph 84 % 0.01 in
21:01 60.2 °F 55.3 °F 30.12 in SE 0.9 mph 4.0 mph 84 % 0.01 in
21:06 60.0 °F 55.5 °F 30.11 in SE 0.6 mph 2.3 mph 85 % 0.02 in
21:11 59.8 °F 55.6 °F 30.11 in SE 0.1 mph 1.2 mph 86 % 0.02 in
21:16 59.6 °F 55.4 °F 30.11 in SE 0.2 mph 1.2 mph 86 % 0.02 in
21:21 59.4 °F 55.5 °F 30.11 in Calm   2.3 mph 87 % 0.02 in
21:26 59.3 °F 55.7 °F 30.11 in ESE 0.3 mph 2.3 mph 88 % 0.02 in
21:31 59.3 °F 55.7 °F 30.10 in ESE 0.5 mph 1.2 mph 88 % 0.02 in
21:36 59.2 °F 55.6 °F 30.11 in Calm   1.2 mph 88 % 0.02 in
21:41 59.2 °F 56.0 °F 30.11 in ESE 0.5 mph 2.3 mph 89 % 0.03 in
21:46 59.1 °F 55.9 °F 30.11 in ESE 0.1 mph 3.5 mph 89 % 0.03 in
21:48 59.1 °F 55.9 °F 30.11 in ESE 0.2 mph 1.2 mph 89 % 0.03 in
21:53 59.0 °F 55.8 °F 30.11 in Calm   1.2 mph 89 % 0.02 in
21:58 59.0 °F 56.1 °F 30.11 in ESE 0.2 mph 1.2 mph 90 % 0.02 in
22:03 59.0 °F 56.1 °F 30.12 in ESE 0.2 mph 1.2 mph 90 % 0.02 in
22:08 59.0 °F 56.1 °F 30.11 in Calm     90 % 0.02 in
22:13 59.0 °F 56.1 °F 30.11 in ESE 0.1 mph 1.2 mph 90 % 0.02 in
22:18 59.0 °F 56.4 °F 30.11 in ESE 0.1 mph 1.2 mph 91 % 0.02 in
22:23 58.9 °F 56.3 °F 30.11 in ESE 0.2 mph 1.2 mph 91 % 0.02 in
22:28 58.9 °F 56.3 °F 30.11 in ESE 0.4 mph 2.3 mph 91 % 0.03 in
22:33 59.0 °F 56.7 °F 30.10 in ESE 0.4 mph 1.2 mph 92 % 0.03 in
22:38 59.0 °F 56.7 °F 30.10 in ESE 0.9 mph 3.5 mph 92 % 0.04 in
22:44 59.0 °F 56.7 °F 30.10 in ESE 0.8 mph 2.3 mph 92 % 0.03 in
22:49 58.9 °F 56.6 °F 30.10 in ESE 1.1 mph 3.5 mph 92 % 0.03 in
22:54 58.8 °F 56.5 °F 30.09 in ESE 0.3 mph 2.3 mph 92 % 0.04 in
22:59 58.8 °F 56.5 °F 30.09 in ESE 0.7 mph 2.3 mph 92 % 0.04 in
23:04 58.8 °F 56.5 °F 30.09 in ESE 0.2 mph 1.2 mph 92 % 0.04 in
23:09 58.8 °F 56.5 °F 30.09 in ESE 1.4 mph 3.5 mph 92 % 0.04 in
23:15 58.6 °F 56.3 °F 30.08 in ESE 0.2 mph 2.3 mph 92 % 0.05 in
23:20 58.5 °F 56.2 °F 30.08 in ESE 0.6 mph 2.3 mph 92 % 0.06 in
23:21 58.5 °F 56.2 °F 30.08 in ESE 0.7 mph 2.3 mph 92 % 0.06 in
23:22 58.4 °F 56.1 °F 30.08 in ESE 0.5 mph 1.2 mph 92 % 0.06 in
23:25 58.4 °F 56.1 °F 30.08 in ESE 1.2 mph 3.5 mph 92 % 0.05 in
23:30 58.2 °F 55.9 °F 30.08 in ESE 0.3 mph 1.2 mph 92 % 0.06 in
23:32 58.2 °F 55.9 °F 30.08 in ESE 0.7 mph 2.3 mph 92 % 0.06 in
23:37 58.1 °F 55.8 °F 30.08 in ESE 0.1 mph 1.2 mph 92 % 0.06 in
23:42 58.0 °F 55.7 °F 30.08 in SE 1.6 mph 3.5 mph 92 % 0.07 in
23:47 57.9 °F 55.6 °F 30.08 in ESE 0.2 mph 1.2 mph 92 % 0.09 in
23:52 57.9 °F 55.9 °F 30.08 in ESE 0.1 mph 1.2 mph 93 % 0.10 in
23:57 57.8 °F 55.8 °F 30.08 in ESE 0.3 mph 1.2 mph 93 % 0.13 in
Crab Meadow Weather
Compliments of Weather Underground - 3 mb

Script developed by  Jim McMurry - jmcmurry@mwt.net Adapted for the template by  Wim van der Kuil - Leuven-Template.eu

Clouds: Mostly sunny and mostly clear indicate the same amount of cloud coverage - about 25 percent. Mostly sunny is used during the daytime, and mostly clear is used at night when there is no sun.